Aviation Digital Data Service (ADDS)

Output produced by METARs form (0556 UTC 08 February 2016)
found at http://www.aviationweather.gov/adds/metars/
 
KJFK 080531Z 0806/0912 04015KT P6SM SCT020 OVC080 
     FM081100 03019KT 5SM -SN BR OVC015 
     FM081300 02018G25KT 1SM -SN BKN007 OVC015 
     FM082000 01011G17KT 3SM -SN SCT007 OVC015 
     FM082300 01009KT P6SM OVC025 
     FM090300 05008KT P6SM BKN025